Terminal Aerodrome Forecast
Issued by NWS

Home | Current Version | Previous Version | Text Only | Print | Product List | Glossary On
Versions: 1 2 3 4 5 6 7 8 9 10 11 12 13 14 15 16 17 18
357
FTUS45 KTFX 180848 AAA
TAFHVR
TAF AMD
KHVR 180848Z 1809/1906 03015KT P6SM -SN SCT025 OVC035
     FM181400 01010KT 1 1/2SM -SN BR OVC010
     FM190500 33007KT P6SM BKN050 OVC090 PROB30 1905/1906 4SM -SN=

USA.gov is the U.S. government's official web portal to all federal, state and local government web resources and services.